createdAt,value
2022-09-04T00:00:13.827Z,59.73
2022-09-04T00:02:24.134Z,59.72
2022-09-04T00:04:39.923Z,59.67
2022-09-04T00:06:55.419Z,59.74
2022-09-04T00:09:05.924Z,59.91
2022-09-04T00:11:17.864Z,60.06
2022-09-04T00:13:27.590Z,60.16
2022-09-04T00:15:32.972Z,60.23
2022-09-04T00:17:47.387Z,60.30
2022-09-04T00:19:53.786Z,60.34
2022-09-04T00:21:58.920Z,60.32
2022-09-04T00:24:03.449Z,60.42
2022-09-04T00:26:21.209Z,60.64
2022-09-04T00:28:34.136Z,60.70
2022-09-04T00:30:41.903Z,60.90
2022-09-04T00:32:48.829Z,60.82
2022-09-04T00:35:05.928Z,60.86
2022-09-04T00:37:11.818Z,61.11
2022-09-04T00:39:33.449Z,61.12
2022-09-04T00:42:04.254Z,61.36
2022-09-04T00:44:31.019Z,61.53
2022-09-04T00:47:08.899Z,61.73
2022-09-04T00:49:30.055Z,61.68
2022-09-04T00:51:42.283Z,61.93
2022-09-04T00:54:01.098Z,62.19
2022-09-04T00:56:17.285Z,62.44
2022-09-04T00:58:47.548Z,62.22
2022-09-04T01:00:55.079Z,62.66
2022-09-04T01:03:15.124Z,62.86
2022-09-04T01:05:34.787Z,63.07
2022-09-04T01:07:48.090Z,63.07
2022-09-04T01:10:22.167Z,63.55
2022-09-04T01:12:35.823Z,63.38
2022-09-04T01:14:45.543Z,63.43
2022-09-04T01:16:57.577Z,63.89
2022-09-04T01:19:04.824Z,63.66
2022-09-04T01:21:18.845Z,63.83
2022-09-04T01:23:41.361Z,64.00
2022-09-04T01:26:00.168Z,64.37
2022-09-04T01:28:07.580Z,64.58
2022-09-04T01:30:18.770Z,64.37
2022-09-04T01:32:35.438Z,64.57
2022-09-04T01:34:48.944Z,64.70
2022-09-04T01:37:01.072Z,64.87
2022-09-04T01:39:07.752Z,64.96
2022-09-04T01:41:21.699Z,64.71
2022-09-04T01:43:23.511Z,64.86
2022-09-04T01:45:34.053Z,65.00
2022-09-04T01:47:43.238Z,65.14
2022-09-04T01:49:51.544Z,65.25
2022-09-04T01:52:05.549Z,65.24
2022-09-04T01:54:12.518Z,65.51
2022-09-04T01:56:21.193Z,65.65
2022-09-04T01:58:33.925Z,65.81
2022-09-04T02:00:43.862Z,65.67
2022-09-04T02:03:09.789Z,65.88
2022-09-04T02:05:20.197Z,65.92
2022-09-04T02:07:32.334Z,65.97
2022-09-04T02:09:41.767Z,65.80
2022-09-04T02:11:48.688Z,65.80
2022-09-04T02:14:05.718Z,66.01
2022-09-04T02:16:14.949Z,66.30
2022-09-04T02:18:34.488Z,66.33
2022-09-04T02:20:36.083Z,66.50
2022-09-04T02:22:49.172Z,66.41
2022-09-04T02:24:58.113Z,66.25
2022-09-04T02:27:08.289Z,66.50
2022-09-04T02:29:22.507Z,66.26
2022-09-04T02:31:33.216Z,66.76
2022-09-04T02:33:42.092Z,66.72
2022-09-04T02:35:49.556Z,66.92
2022-09-04T02:38:02.881Z,66.95
2022-09-04T02:40:13.810Z,66.89
2022-09-04T02:42:24.281Z,67.21
2022-09-04T02:44:36.497Z,66.37
2022-09-04T02:46:52.826Z,66.83
2022-09-04T02:49:03.985Z,66.63
2022-09-04T02:51:19.076Z,66.56
2022-09-04T02:53:29.693Z,66.44
2022-09-04T02:55:47.830Z,66.31
2022-09-04T02:58:01.735Z,66.46
2022-09-04T03:00:07.205Z,66.51
2022-09-04T03:02:19.203Z,66.30
2022-09-04T03:04:28.222Z,66.15
2022-09-04T03:06:44.699Z,66.24
2022-09-04T03:08:53.434Z,66.14
2022-09-04T03:11:01.625Z,66.05
2022-09-04T03:13:14.479Z,66.16
2022-09-04T03:15:23.737Z,66.25
2022-09-04T03:17:33.040Z,66.06
2022-09-04T03:19:40.957Z,66.10
2022-09-04T03:21:50.340Z,65.89
2022-09-04T03:23:59.738Z,65.78
2022-09-04T03:26:28.527Z,66.01
2022-09-04T03:28:40.828Z,65.94
2022-09-04T03:30:46.380Z,66.11
2022-09-04T03:32:55.332Z,65.93
2022-09-04T03:35:03.235Z,66.04
2022-09-04T03:37:29.691Z,65.75
2022-09-04T03:39:40.652Z,66.25
2022-09-04T03:41:50.434Z,66.11
2022-09-04T03:44:04.935Z,66.20
2022-09-04T03:46:23.551Z,65.87
2022-09-04T03:48:40.042Z,65.85
2022-09-04T03:50:51.464Z,66.20
2022-09-04T03:53:02.554Z,66.18
2022-09-04T03:55:37.804Z,66.12
2022-09-04T03:57:58.665Z,66.25
2022-09-04T04:00:08.155Z,66.66
2022-09-04T04:02:21.428Z,66.09
2022-09-04T04:04:56.616Z,66.47
2022-09-04T04:07:06.768Z,66.54
2022-09-04T04:09:29.301Z,66.56
2022-09-04T04:11:45.440Z,66.88
2022-09-04T04:14:06.999Z,66.47
2022-09-04T04:16:26.456Z,67.03
2022-09-04T04:18:47.533Z,66.84
2022-09-04T04:20:56.112Z,67.12
2022-09-04T04:23:14.455Z,66.79
2022-09-04T04:25:26.546Z,67.07
2022-09-04T04:27:43.143Z,66.89
2022-09-04T04:30:01.811Z,67.69
2022-09-04T04:32:21.170Z,67.62
2022-09-04T04:34:31.150Z,67.80
2022-09-04T04:36:39.647Z,67.66
2022-09-04T04:39:00.799Z,67.79
2022-09-04T04:41:21.153Z,67.42
2022-09-04T04:43:26.638Z,67.81
2022-09-04T04:45:40.255Z,67.56
2022-09-04T04:48:10.827Z,67.08
2022-09-04T04:50:20.397Z,65.18
2022-09-04T04:52:28.777Z,63.90
2022-09-04T04:54:47.052Z,63.27
2022-09-04T04:56:53.867Z,63.46
2022-09-04T04:59:08.087Z,63.74
2022-09-04T05:01:18.308Z,64.06
2022-09-04T05:03:37.303Z,63.63
2022-09-04T05:05:52.511Z,63.21
2022-09-04T05:08:05.079Z,62.93
2022-09-04T05:10:18.244Z,61.66
2022-09-04T05:12:28.415Z,61.58
2022-09-04T05:14:39.666Z,62.31
2022-09-04T05:16:55.369Z,63.04
2022-09-04T05:19:07.138Z,63.50
2022-09-04T05:21:17.314Z,64.14
2022-09-04T05:23:29.037Z,64.19
2022-09-04T05:25:38.843Z,64.00
2022-09-04T05:27:54.689Z,63.69
2022-09-04T05:30:04.947Z,63.18
2022-09-04T05:32:17.937Z,62.72
2022-09-04T05:34:30.446Z,62.39
2022-09-04T05:36:45.456Z,62.50
2022-09-04T05:38:58.644Z,62.70
2022-09-04T05:41:05.774Z,62.89
2022-09-04T05:43:22.917Z,62.50
2022-09-04T05:45:32.893Z,63.10
2022-09-04T05:47:43.559Z,63.54
2022-09-04T05:50:06.768Z,63.67
2022-09-04T05:52:25.975Z,63.46
2022-09-04T05:54:51.269Z,64.03
2022-09-04T05:57:16.990Z,64.02
2022-09-04T05:59:54.519Z,63.76
2022-09-04T06:02:12.722Z,65.06
2022-09-04T06:04:38.077Z,64.90
2022-09-04T06:06:56.407Z,65.32
2022-09-04T06:09:31.696Z,65.86
2022-09-04T06:11:46.184Z,66.13
2022-09-04T06:14:07.623Z,65.28
2022-09-04T06:16:26.298Z,64.50
2022-09-04T06:18:46.536Z,63.72
2022-09-04T06:21:04.298Z,63.47
2022-09-04T06:23:40.613Z,63.33
2022-09-04T06:26:05.766Z,63.60
2022-09-04T06:28:46.234Z,63.24
2022-09-04T06:30:57.717Z,63.23
2022-09-04T06:33:17.224Z,63.95
2022-09-04T06:35:31.259Z,63.22
2022-09-04T06:37:39.535Z,63.00
2022-09-04T06:39:54.949Z,63.54
2022-09-04T06:42:17.546Z,63.50
2022-09-04T06:44:33.691Z,62.66
2022-09-04T06:46:44.099Z,62.81
2022-09-04T06:48:58.537Z,62.87
2022-09-04T06:51:13.017Z,62.17
2022-09-04T06:53:27.758Z,61.98
2022-09-04T06:55:38.044Z,62.38
2022-09-04T06:58:06.987Z,62.30
2022-09-04T07:00:10.902Z,61.87
2022-09-04T07:02:27.619Z,61.35
2022-09-04T07:04:48.398Z,62.03
2022-09-04T07:07:02.409Z,62.18
2022-09-04T07:09:10.857Z,62.62
2022-09-04T07:11:24.154Z,62.60
2022-09-04T07:13:56.999Z,61.79
2022-09-04T07:16:29.115Z,61.53
2022-09-04T07:18:48.914Z,61.31
2022-09-04T07:20:59.471Z,60.62
2022-09-04T07:23:21.361Z,60.42
2022-09-04T07:25:27.221Z,60.88
2022-09-04T07:27:48.202Z,60.10
2022-09-04T07:29:55.003Z,59.63
2022-09-04T07:32:03.161Z,60.16
2022-09-04T07:34:13.786Z,59.26
2022-09-04T07:36:20.800Z,58.98
2022-09-04T07:38:34.760Z,59.72
2022-09-04T07:40:39.098Z,60.01
2022-09-04T07:42:48.255Z,60.69
2022-09-04T07:44:59.996Z,60.29
2022-09-04T07:47:09.453Z,60.31
2022-09-04T07:49:22.351Z,60.20
2022-09-04T07:51:33.122Z,60.28
2022-09-04T07:53:51.561Z,60.61
2022-09-04T07:55:59.166Z,60.34
2022-09-04T07:58:12.139Z,60.27
2022-09-04T08:00:17.807Z,59.14
2022-09-04T08:02:30.616Z,59.64
2022-09-04T08:05:07.928Z,59.08
2022-09-04T08:07:17.453Z,59.56
2022-09-04T08:09:50.312Z,59.38
2022-09-04T08:12:09.078Z,59.26
2022-09-04T08:14:52.461Z,60.29
2022-09-04T08:17:30.620Z,58.73
2022-09-04T08:19:44.168Z,57.83
2022-09-04T08:21:48.770Z,58.26
2022-09-04T08:24:18.284Z,58.02
2022-09-04T08:26:31.046Z,57.75
2022-09-04T08:28:47.501Z,57.66
2022-09-04T08:30:56.673Z,58.53
2022-09-04T08:33:24.351Z,58.35
2022-09-04T08:35:29.539Z,58.73
2022-09-04T08:37:43.962Z,59.09
2022-09-04T08:39:54.934Z,58.33
2022-09-04T08:42:30.352Z,57.23
2022-09-04T08:45:16.573Z,57.48
2022-09-04T08:47:54.113Z,56.94
2022-09-04T08:50:29.742Z,57.20
2022-09-04T08:53:05.470Z,56.57
2022-09-04T08:55:26.783Z,57.00
2022-09-04T08:58:13.057Z,55.93
2022-09-04T09:00:17.094Z,55.14
2022-09-04T09:03:09.511Z,55.44
2022-09-04T09:05:46.260Z,53.89
2022-09-04T09:08:11.552Z,53.29
2022-09-04T09:10:34.573Z,52.82
2022-09-04T09:13:23.777Z,52.84
2022-09-04T09:16:01.896Z,52.86
2022-09-04T09:18:28.862Z,51.41
2022-09-04T09:20:38.683Z,51.34
2022-09-04T09:23:08.629Z,51.45
2022-09-04T09:25:18.588Z,51.07
2022-09-04T09:28:03.132Z,50.76
2022-09-04T09:30:07.309Z,50.38
2022-09-04T09:32:41.801Z,50.35
2022-09-04T09:35:21.899Z,49.54
2022-09-04T09:38:04.692Z,49.62
2022-09-04T09:40:33.172Z,49.52
2022-09-04T09:43:23.518Z,49.22
2022-09-04T09:45:50.603Z,48.93
2022-09-04T09:48:11.824Z,49.29
2022-09-04T09:50:48.687Z,49.12
2022-09-04T09:53:27.188Z,47.90
2022-09-04T09:55:57.065Z,47.85
2022-09-04T09:58:27.541Z,47.86
2022-09-04T10:00:40.013Z,47.15
2022-09-04T10:03:22.417Z,46.98
2022-09-04T10:06:07.706Z,46.50
2022-09-04T10:08:37.975Z,46.43
2022-09-04T10:11:01.090Z,46.27
2022-09-04T10:13:46.095Z,46.27
2022-09-04T10:16:28.903Z,46.15
2022-09-04T10:19:10.010Z,46.21
2022-09-04T10:21:54.967Z,45.95
2022-09-04T10:24:24.768Z,44.29
2022-09-04T10:26:54.094Z,44.17
2022-09-04T10:29:50.579Z,44.12
2022-09-04T10:32:14.918Z,44.28
2022-09-04T10:34:37.514Z,44.61
2022-09-04T10:36:52.560Z,44.84
2022-09-04T10:39:13.008Z,44.56
2022-09-04T10:41:49.047Z,44.87
2022-09-04T10:44:09.705Z,44.81
2022-09-04T10:46:23.117Z,43.76
2022-09-04T10:48:41.938Z,43.63
2022-09-04T10:51:13.413Z,43.54
2022-09-04T10:53:35.654Z,43.23
2022-09-04T10:56:01.091Z,43.10
2022-09-04T10:58:20.848Z,43.39
2022-09-04T11:00:34.023Z,43.98
2022-09-04T11:03:00.763Z,43.87
2022-09-04T11:05:17.133Z,43.35
2022-09-04T11:08:02.772Z,43.40
2022-09-04T11:10:44.819Z,43.04
2022-09-04T11:13:35.883Z,42.68
2022-09-04T11:16:12.213Z,41.84
2022-09-04T11:18:36.877Z,41.80
2022-09-04T11:21:19.729Z,41.67
2022-09-04T11:24:12.368Z,40.97
2022-09-04T11:26:50.273Z,41.33
2022-09-04T11:29:31.129Z,41.54
2022-09-04T11:31:47.671Z,42.29
2022-09-04T11:34:37.914Z,40.44
2022-09-04T11:37:09.807Z,39.94
2022-09-04T11:39:54.547Z,40.65
2022-09-04T11:42:36.334Z,39.88
2022-09-04T11:45:15.549Z,40.03
2022-09-04T11:47:45.711Z,39.79
2022-09-04T11:50:04.612Z,40.25
2022-09-04T11:52:25.737Z,40.14
2022-09-04T11:54:53.707Z,39.71
2022-09-04T11:57:20.707Z,40.63
2022-09-04T11:59:46.573Z,39.91
2022-09-04T12:02:06.925Z,39.26
2022-09-04T12:04:32.489Z,39.20
2022-09-04T12:06:52.947Z,39.10
2022-09-04T12:09:46.116Z,39.42
2022-09-04T12:12:20.840Z,38.22
2022-09-04T12:14:42.258Z,38.95
2022-09-04T12:17:19.959Z,38.83
2022-09-04T12:20:10.211Z,38.04
2022-09-04T12:22:40.221Z,38.05
2022-09-04T12:25:17.451Z,37.90
2022-09-04T12:27:57.706Z,38.33
2022-09-04T12:30:09.761Z,37.00
2022-09-04T12:32:43.677Z,37.26
2022-09-04T12:34:56.487Z,37.02
2022-09-04T12:37:28.479Z,37.08
2022-09-04T12:39:57.175Z,36.46
2022-09-04T12:42:11.341Z,36.99
2022-09-04T12:44:21.291Z,36.77
2022-09-04T12:46:38.982Z,36.37
2022-09-04T12:48:51.595Z,36.29
2022-09-04T12:50:57.510Z,36.48
2022-09-04T12:53:24.627Z,36.37
2022-09-04T12:55:36.333Z,36.23
2022-09-04T12:57:50.644Z,36.32
2022-09-04T13:00:02.103Z,36.56
2022-09-04T13:02:14.306Z,36.83
2022-09-04T13:04:22.293Z,36.10
2022-09-04T13:06:41.419Z,36.21
2022-09-04T13:08:49.819Z,36.95
2022-09-04T13:11:04.950Z,36.51
2022-09-04T13:13:19.113Z,36.94
2022-09-04T13:15:34.548Z,36.30
2022-09-04T13:17:44.545Z,36.12
2022-09-04T13:19:56.806Z,36.30
2022-09-04T13:22:13.180Z,36.50
2022-09-04T13:24:29.752Z,36.71
2022-09-04T13:26:41.380Z,36.27
2022-09-04T13:28:55.237Z,36.24
2022-09-04T13:31:05.739Z,36.49
2022-09-04T13:33:23.990Z,36.23
2022-09-04T13:35:39.403Z,35.72
2022-09-04T13:38:00.152Z,35.58
2022-09-04T13:40:21.339Z,35.92
2022-09-04T13:43:08.170Z,36.09
2022-09-04T13:45:12.624Z,36.17
2022-09-04T13:47:17.905Z,35.50
2022-09-04T13:49:25.524Z,35.56
2022-09-04T13:51:34.697Z,35.92
2022-09-04T13:53:49.146Z,36.77
2022-09-04T13:55:56.279Z,35.55
2022-09-04T13:58:05.108Z,34.94
2022-09-04T14:00:08.188Z,36.09
2022-09-04T14:02:13.883Z,35.04
2022-09-04T14:04:20.343Z,35.08
2022-09-04T14:06:25.161Z,35.62
2022-09-04T14:08:28.964Z,35.25
2022-09-04T14:10:55.977Z,35.00
2022-09-04T14:13:07.761Z,35.34
2022-09-04T14:15:42.520Z,35.48
2022-09-04T14:17:58.665Z,35.63
2022-09-04T14:20:13.729Z,35.64
2022-09-04T14:22:41.220Z,35.88
2022-09-04T14:24:54.266Z,36.41
2022-09-04T14:27:06.569Z,36.42
2022-09-04T14:29:22.401Z,35.50
2022-09-04T14:31:34.364Z,36.06
2022-09-04T14:33:46.896Z,35.92
2022-09-04T14:36:02.301Z,36.18
2022-09-04T14:38:43.339Z,36.99
2022-09-04T14:40:56.795Z,36.68
2022-09-04T14:43:13.915Z,37.14
2022-09-04T14:45:24.628Z,36.78
2022-09-04T14:47:37.498Z,36.21
2022-09-04T14:49:47.131Z,35.87
2022-09-04T14:51:51.675Z,36.40
2022-09-04T14:53:54.197Z,36.54
2022-09-04T14:56:24.677Z,36.73
2022-09-04T14:58:32.961Z,37.20
2022-09-04T15:00:55.907Z,36.47
2022-09-04T15:03:08.591Z,36.30
2022-09-04T15:05:21.253Z,36.76
2022-09-04T15:07:35.664Z,36.36
2022-09-04T15:09:40.681Z,36.24
2022-09-04T15:11:45.070Z,36.55
2022-09-04T15:13:51.920Z,36.67
2022-09-04T15:15:57.494Z,37.00
2022-09-04T15:18:10.651Z,37.20
2022-09-04T15:20:19.730Z,36.88
2022-09-04T15:22:29.550Z,36.98
2022-09-04T15:24:36.382Z,36.49
2022-09-04T15:26:46.582Z,36.86
2022-09-04T15:28:55.324Z,36.86
2022-09-04T15:31:15.222Z,37.20
2022-09-04T15:33:19.452Z,37.11
2022-09-04T15:35:24.143Z,37.29
2022-09-04T15:37:28.432Z,36.47
2022-09-04T15:39:37.876Z,36.69
2022-09-04T15:41:44.734Z,37.08
2022-09-04T15:43:50.184Z,37.47
2022-09-04T15:46:01.871Z,37.64
2022-09-04T15:48:34.017Z,37.42
2022-09-04T15:50:50.610Z,37.01
2022-09-04T15:55:20.181Z,38.03
2022-09-04T15:57:28.359Z,37.34
2022-09-04T15:59:39.329Z,37.20
2022-09-04T16:01:49.829Z,37.32
2022-09-04T16:04:05.485Z,37.76
2022-09-04T16:06:17.714Z,37.41
2022-09-04T16:08:25.664Z,38.16
2022-09-04T16:10:41.492Z,37.74
2022-09-04T16:12:51.073Z,38.05
2022-09-04T16:14:57.847Z,37.91
2022-09-04T16:17:11.010Z,38.47
2022-09-04T16:19:26.840Z,39.09
2022-09-04T16:21:39.886Z,38.12
2022-09-04T16:23:41.484Z,38.80
2022-09-04T16:25:44.464Z,39.08
2022-09-04T16:27:54.391Z,38.51
2022-09-04T16:29:59.435Z,38.76
2022-09-04T16:32:04.968Z,38.27
2022-09-04T16:34:16.651Z,38.65
2022-09-04T16:36:24.242Z,38.13
2022-09-04T16:38:34.688Z,38.54
2022-09-04T16:40:45.910Z,38.54
2022-09-04T16:42:51.110Z,39.09
2022-09-04T16:45:04.961Z,38.63
2022-09-04T16:47:18.626Z,38.99
2022-09-04T16:49:26.003Z,39.11
2022-09-04T16:51:41.035Z,38.75
2022-09-04T16:53:49.872Z,39.01
2022-09-04T16:55:58.234Z,39.26
2022-09-04T16:58:34.756Z,39.53
2022-09-04T17:00:54.140Z,39.85
2022-09-04T17:03:10.343Z,40.09
2022-09-04T17:05:23.192Z,39.84
2022-09-04T17:07:36.542Z,40.32
2022-09-04T17:09:59.677Z,40.23
2022-09-04T17:12:18.082Z,40.47
2022-09-04T17:14:25.368Z,40.87
2022-09-04T17:16:34.214Z,40.67
2022-09-04T17:18:49.583Z,41.24
2022-09-04T17:25:57.342Z,40.92
2022-09-04T17:28:58.037Z,41.62
2022-09-04T17:29:07.536Z,41.62
2022-09-04T17:29:15.233Z,41.98
2022-09-04T17:31:08.771Z,43.10
2022-09-04T17:36:49.284Z,43.38
2022-09-04T17:40:39.498Z,44.34
2022-09-04T17:41:33.324Z,44.63
2022-09-04T17:41:36.418Z,45.19
2022-09-04T17:43:27.389Z,45.47
2022-09-04T17:45:38.941Z,45.51
2022-09-04T17:47:44.519Z,45.83
2022-09-04T17:49:49.157Z,46.21
2022-09-04T17:51:57.485Z,46.02
2022-09-04T17:54:04.220Z,46.49
2022-09-04T17:56:15.947Z,46.79
2022-09-04T17:58:29.499Z,46.91
2022-09-04T18:01:14.640Z,47.20
2022-09-04T18:03:26.114Z,47.60
2022-09-04T18:05:36.342Z,47.87
2022-09-04T18:08:09.831Z,47.76
2022-09-04T18:10:21.360Z,48.24
2022-09-04T18:12:32.579Z,48.18
2022-09-04T18:14:42.050Z,48.32
2022-09-04T18:17:12.394Z,48.70
2022-09-04T18:19:21.696Z,48.74
2022-09-04T18:21:27.221Z,49.00
2022-09-04T18:23:52.091Z,48.76
2022-09-04T18:26:02.127Z,49.66
2022-09-04T18:28:13.078Z,49.58
2022-09-04T18:35:34.856Z,49.54
2022-09-04T18:37:17.418Z,49.70
2022-09-04T18:37:19.634Z,49.78
2022-09-04T18:37:47.689Z,49.83
2022-09-04T18:40:05.174Z,49.93
2022-09-04T18:50:28.622Z,50.20
2022-09-04T18:50:36.653Z,49.97
2022-09-04T18:50:40.488Z,49.78
2022-09-04T18:50:44.119Z,50.61
2022-09-04T18:52:29.917Z,50.52
2022-09-04T18:54:39.360Z,50.50
2022-09-04T18:56:48.029Z,50.73
2022-09-04T18:58:58.086Z,50.57
2022-09-04T19:01:09.623Z,50.86
2022-09-04T19:03:16.055Z,51.02
2022-09-04T19:05:19.871Z,51.12
2022-09-04T19:07:27.353Z,51.65
2022-09-04T19:09:31.645Z,51.83
2022-09-04T19:11:50.304Z,52.10
2022-09-04T19:14:06.385Z,52.40
2022-09-04T19:16:19.037Z,52.53
2022-09-04T19:18:29.150Z,53.12
2022-09-04T19:20:37.723Z,53.21
2022-09-04T19:22:45.236Z,53.35
2022-09-04T19:24:55.012Z,53.78
2022-09-04T19:27:28.175Z,54.15
2022-09-04T19:29:36.433Z,54.20
2022-09-04T19:31:44.202Z,54.34
2022-09-04T19:33:51.962Z,54.63
2022-09-04T19:36:07.114Z,54.71
2022-09-04T19:45:56.404Z,55.00
2022-09-04T19:46:04.423Z,55.49
2022-09-04T19:46:07.236Z,55.14
2022-09-04T19:46:09.470Z,55.50
2022-09-04T19:48:20.300Z,55.80
2022-09-04T19:53:18.951Z,56.00
2022-09-04T19:53:31.419Z,56.00
2022-09-04T19:55:25.265Z,56.32
2022-09-04T19:57:39.235Z,56.34
2022-09-04T19:59:46.466Z,56.43
2022-09-04T20:01:52.090Z,56.54
2022-09-04T20:04:10.614Z,56.69
2022-09-04T20:06:23.322Z,56.81
2022-09-04T20:08:31.886Z,57.21
2022-09-04T20:10:41.696Z,57.32
2022-09-04T20:12:50.653Z,57.37
2022-09-04T20:15:00.825Z,57.89
2022-09-04T20:17:28.808Z,57.65
2022-09-04T20:19:39.458Z,57.92
2022-09-04T20:21:45.199Z,58.21
2022-09-04T20:23:52.125Z,58.18
2022-09-04T20:26:05.341Z,58.42
2022-09-04T20:28:18.306Z,58.55
2022-09-04T20:30:24.106Z,58.73
2022-09-04T20:32:30.554Z,58.77
2022-09-04T20:34:43.328Z,59.04
2022-09-04T20:36:53.405Z,58.84
2022-09-04T20:39:01.054Z,59.08
2022-09-04T20:41:15.302Z,59.27
2022-09-04T20:43:30.136Z,59.85
2022-09-04T20:48:03.664Z,60.13
2022-09-04T20:52:50.065Z,60.08
2022-09-04T20:52:53.513Z,59.92
2022-09-04T20:53:20.485Z,60.21
2022-09-04T20:55:46.071Z,60.62
2022-09-04T21:02:26.962Z,60.83
2022-09-04T21:03:17.136Z,60.84
2022-09-04T21:03:22.394Z,60.89
2022-09-04T21:05:43.870Z,61.37
2022-09-04T21:07:49.314Z,61.38
2022-09-04T21:10:01.373Z,61.33
2022-09-04T21:12:20.535Z,61.54
2022-09-04T21:14:44.481Z,61.89
2022-09-04T21:17:34.018Z,61.79
2022-09-04T21:20:16.323Z,62.06
2022-09-04T21:22:44.743Z,62.26
2022-09-04T21:25:28.243Z,62.57
2022-09-04T21:28:09.516Z,62.69
2022-09-04T21:30:14.363Z,62.73
2022-09-04T21:32:42.555Z,62.94
2022-09-04T21:34:55.167Z,62.83
2022-09-04T21:37:05.297Z,62.44
2022-09-04T21:39:41.185Z,63.03
2022-09-04T21:42:17.695Z,62.95
2022-09-04T21:44:52.434Z,62.77
2022-09-04T21:47:08.365Z,63.38
2022-09-04T21:49:43.914Z,63.55
2022-09-04T21:52:00.544Z,64.04
2022-09-04T21:54:26.946Z,63.74
2022-09-04T22:02:31.275Z,63.96
2022-09-04T22:02:35.906Z,63.86
2022-09-04T22:02:38.111Z,63.81
2022-09-04T22:04:53.502Z,63.71
2022-09-04T22:10:15.450Z,64.18
2022-09-04T22:13:29.337Z,64.01
2022-09-04T22:13:40.553Z,64.01
2022-09-04T22:14:46.441Z,63.59
2022-09-04T22:17:05.966Z,63.97
2022-09-04T22:19:52.753Z,64.18
2022-09-04T22:22:09.707Z,64.03
2022-09-04T22:24:34.990Z,64.19
2022-09-04T22:27:01.755Z,64.27
2022-09-04T22:29:18.564Z,64.20
2022-09-04T22:32:11.673Z,64.34
2022-09-04T22:35:20.306Z,64.39
2022-09-04T22:38:03.138Z,64.65
2022-09-04T22:40:22.013Z,65.01
2022-09-04T22:42:38.767Z,64.90
2022-09-04T22:45:10.002Z,64.94
2022-09-04T22:47:31.994Z,64.99
2022-09-04T22:49:57.998Z,65.30
2022-09-04T22:52:23.708Z,65.41
2022-09-04T22:54:41.371Z,65.58
2022-09-04T22:56:56.639Z,65.86
2022-09-04T22:59:22.843Z,66.00
2022-09-04T23:01:45.668Z,65.88
2022-09-04T23:04:03.705Z,66.25
2022-09-04T23:07:44.323Z,66.13
2022-09-04T23:13:46.988Z,66.86
2022-09-04T23:13:47.406Z,66.58
2022-09-04T23:14:18.956Z,66.73
2022-09-04T23:16:46.125Z,67.01
2022-09-04T23:24:46.583Z,66.95
2022-09-04T23:26:35.496Z,67.35
2022-09-04T23:26:44.649Z,67.61
2022-09-04T23:27:33.891Z,67.59
2022-09-04T23:29:59.508Z,67.89
2022-09-04T23:32:26.668Z,67.88
2022-09-04T23:34:44.085Z,68.18
2022-09-04T23:37:21.152Z,68.42
2022-09-04T23:39:47.391Z,68.82
2022-09-04T23:41:59.428Z,68.62
2022-09-04T23:44:52.543Z,69.04
2022-09-04T23:47:47.788Z,69.09
2022-09-04T23:50:00.975Z,69.31
2022-09-04T23:52:11.580Z,69.51
2022-09-04T23:54:48.039Z,69.58
2022-09-04T23:56:57.469Z,69.91
2022-09-04T23:59:18.944Z,69.91
